createdAt,value
2017-09-18T00:00:04.905Z,3.90
2017-09-18T00:02:33.006Z,3.30
2017-09-18T00:05:01.184Z,3.90
2017-09-18T00:07:29.256Z,3.23
2017-09-18T00:09:57.365Z,3.70
2017-09-18T00:12:25.639Z,3.70
2017-09-18T00:14:53.744Z,4.17
2017-09-18T00:17:21.832Z,4.00
2017-09-18T00:19:49.928Z,4.20
2017-09-18T00:22:18.030Z,4.30
2017-09-18T00:24:46.108Z,4.10
2017-09-18T00:27:14.268Z,4.17
2017-09-18T00:29:43.372Z,3.73
2017-09-18T00:32:11.463Z,3.67
2017-09-18T00:34:39.527Z,3.20
2017-09-18T00:37:07.604Z,3.83
2017-09-18T00:39:35.695Z,3.90
2017-09-18T00:42:05.123Z,3.97
2017-09-18T00:44:34.127Z,3.73
2017-09-18T00:47:02.223Z,4.40
2017-09-18T00:49:30.290Z,3.90
2017-09-18T00:52:00.182Z,4.03
2017-09-18T00:54:28.281Z,4.00
2017-09-18T00:56:56.359Z,4.60
2017-09-18T00:59:24.503Z,5.93
2017-09-18T01:01:52.624Z,4.60
2017-09-18T01:04:21.513Z,4.40
2017-09-18T01:06:49.663Z,4.53
2017-09-18T01:09:18.352Z,4.30
2017-09-18T01:11:46.521Z,5.30
2017-09-18T01:14:14.611Z,5.30
2017-09-18T01:16:42.755Z,4.47
2017-09-18T01:19:10.847Z,4.30
2017-09-18T01:21:39.024Z,4.77
2017-09-18T01:24:07.104Z,5.40
2017-09-18T01:26:35.231Z,5.90
2017-09-18T01:29:03.317Z,4.90
2017-09-18T01:31:31.436Z,4.43
2017-09-18T01:34:00.291Z,5.70
2017-09-18T01:36:28.386Z,5.23
2017-09-18T01:38:56.521Z,5.60
2017-09-18T01:41:24.655Z,4.90
2017-09-18T01:43:52.984Z,5.40
2017-09-18T01:46:21.054Z,4.60
2017-09-18T01:48:49.157Z,5.10
2017-09-18T01:51:17.338Z,4.90
2017-09-18T01:53:45.438Z,4.93
2017-09-18T01:56:13.578Z,5.20
2017-09-18T01:58:42.475Z,5.60
2017-09-18T02:01:11.335Z,6.43
2017-09-18T02:03:39.418Z,5.70
2017-09-18T02:06:07.517Z,5.33
2017-09-18T02:08:35.636Z,5.23
2017-09-18T02:11:03.757Z,4.90
2017-09-18T02:13:33.779Z,5.50
2017-09-18T02:16:01.894Z,5.63
2017-09-18T02:18:29.969Z,5.50
2017-09-18T02:20:58.108Z,5.77
2017-09-18T02:23:26.192Z,5.30
2017-09-18T02:25:54.296Z,5.43
2017-09-18T02:28:22.379Z,5.60
2017-09-18T02:30:50.494Z,5.60
2017-09-18T02:33:20.248Z,5.63
2017-09-18T02:35:48.363Z,5.33
2017-09-18T02:38:17.556Z,5.27
2017-09-18T02:40:46.439Z,5.50
2017-09-18T02:43:14.544Z,5.87
2017-09-18T02:45:42.638Z,5.50
2017-09-18T02:48:12.379Z,5.50
2017-09-18T02:50:40.503Z,5.27
2017-09-18T02:53:09.496Z,4.93
2017-09-18T02:55:37.588Z,5.93
2017-09-18T02:58:05.799Z,6.13
2017-09-18T03:00:33.917Z,6.30
2017-09-18T03:03:02.357Z,5.57
2017-09-18T03:05:30.451Z,6.10
2017-09-18T03:07:59.319Z,5.20
2017-09-18T03:10:27.460Z,5.10
2017-09-18T03:12:55.561Z,5.10
2017-09-18T03:15:23.771Z,5.80
2017-09-18T03:17:52.641Z,5.10
2017-09-18T03:20:20.736Z,5.23
2017-09-18T03:22:48.894Z,5.50
2017-09-18T03:25:17.029Z,5.83
2017-09-18T03:27:45.115Z,6.17
2017-09-18T03:30:13.217Z,5.63
2017-09-18T03:32:42.134Z,5.77
2017-09-18T03:35:10.444Z,5.10
2017-09-18T03:37:40.615Z,6.13
2017-09-18T03:40:08.747Z,6.03
2017-09-18T03:42:36.844Z,6.03
2017-09-18T03:45:04.965Z,6.30
2017-09-18T03:47:33.100Z,5.73
2017-09-18T03:50:01.976Z,5.40
2017-09-18T03:52:30.846Z,5.50
2017-09-18T03:54:59.975Z,6.10
2017-09-18T03:57:28.898Z,5.87
2017-09-18T03:59:57.012Z,5.50
2017-09-18T04:02:25.104Z,5.60
2017-09-18T04:04:54.009Z,5.00
2017-09-18T04:07:22.389Z,4.93
2017-09-18T04:09:50.495Z,5.07
2017-09-18T04:12:18.634Z,5.80
2017-09-18T04:14:46.765Z,6.07
2017-09-18T04:17:14.854Z,5.67
2017-09-18T04:19:43.006Z,6.03
2017-09-18T04:22:11.119Z,6.20
2017-09-18T04:24:39.209Z,6.13
2017-09-18T04:27:07.332Z,6.57
2017-09-18T04:29:35.432Z,6.20
2017-09-18T04:32:03.676Z,5.50
2017-09-18T04:34:32.577Z,5.63
2017-09-18T04:37:00.672Z,6.40
2017-09-18T04:39:29.551Z,6.23
2017-09-18T04:41:57.729Z,6.27
2017-09-18T04:44:25.851Z,6.03
2017-09-18T04:46:56.211Z,6.03
2017-09-18T04:49:24.322Z,6.40
2017-09-18T04:51:52.556Z,7.03
2017-09-18T04:54:20.644Z,6.40
2017-09-18T04:56:48.749Z,6.17
2017-09-18T04:59:16.870Z,6.20
2017-09-18T05:01:45.168Z,6.80
2017-09-18T05:04:14.842Z,6.50
2017-09-18T05:06:42.959Z,6.77
2017-09-18T05:09:11.810Z,5.53
2017-09-18T05:11:39.896Z,6.27
2017-09-18T05:14:08.020Z,6.10
2017-09-18T05:16:36.118Z,6.23
2017-09-18T05:19:04.347Z,6.70
2017-09-18T05:21:33.211Z,6.50
2017-09-18T05:24:01.317Z,6.30
2017-09-18T05:26:29.400Z,7.10
2017-09-18T05:28:57.482Z,7.57
2017-09-18T05:31:25.579Z,6.50
2017-09-18T05:33:53.675Z,7.10
2017-09-18T05:36:21.776Z,6.40
2017-09-18T05:38:49.892Z,6.67
2017-09-18T05:41:18.085Z,6.60
2017-09-18T05:43:46.187Z,6.53
2017-09-18T05:46:14.286Z,8.07
2017-09-18T05:48:42.408Z,6.57
2017-09-18T05:51:10.675Z,7.20
2017-09-18T05:53:38.819Z,6.67
2017-09-18T05:56:06.922Z,7.63
2017-09-18T05:58:36.299Z,8.10
2017-09-18T06:01:04.404Z,7.27
2017-09-18T06:03:32.504Z,7.03
2017-09-18T06:06:01.413Z,7.60
2017-09-18T06:08:29.517Z,7.20
2017-09-18T06:10:57.594Z,6.93
2017-09-18T06:13:26.748Z,7.70
2017-09-18T06:15:54.844Z,7.77
2017-09-18T06:18:22.944Z,7.30
2017-09-18T06:20:51.051Z,8.17
2017-09-18T06:23:19.936Z,7.37
2017-09-18T06:25:48.835Z,7.80
2017-09-18T06:28:16.964Z,8.77
2017-09-18T06:30:45.277Z,6.87
2017-09-18T06:33:13.418Z,7.70
2017-09-18T06:35:41.902Z,8.00
2017-09-18T06:38:10.378Z,8.00
2017-09-18T06:40:38.537Z,8.60
2017-09-18T06:43:06.673Z,8.27
2017-09-18T06:45:34.793Z,8.47
2017-09-18T06:48:03.468Z,8.27
2017-09-18T06:50:31.853Z,8.80
2017-09-18T06:52:59.998Z,7.80
2017-09-18T06:55:28.163Z,8.67
2017-09-18T06:57:57.213Z,8.70
2017-09-18T07:00:26.285Z,8.23
2017-09-18T07:02:54.973Z,7.87
2017-09-18T07:05:23.072Z,8.87
2017-09-18T07:07:51.351Z,7.50
2017-09-18T07:10:21.867Z,7.30
2017-09-18T07:12:50.941Z,8.93
2017-09-18T07:15:19.059Z,8.20
2017-09-18T07:17:47.190Z,8.13
2017-09-18T07:20:16.044Z,7.93
2017-09-18T07:22:44.928Z,7.40
2017-09-18T07:25:15.012Z,9.80
2017-09-18T07:27:44.373Z,7.73
2017-09-18T07:30:12.470Z,9.53
2017-09-18T07:32:40.570Z,8.50
2017-09-18T07:35:08.699Z,8.10
2017-09-18T07:37:36.811Z,8.17
2017-09-18T07:40:06.983Z,9.13
2017-09-18T07:42:36.185Z,9.73
2017-09-18T07:45:04.950Z,9.47
2017-09-18T07:47:33.101Z,9.43
2017-09-18T07:50:01.476Z,10.43
2017-09-18T07:52:29.628Z,11.27
2017-09-18T07:54:57.842Z,10.63
2017-09-18T07:57:26.845Z,10.30
2017-09-18T07:59:56.272Z,11.33
2017-09-18T08:02:24.764Z,11.30
2017-09-18T08:04:53.202Z,11.00
2017-09-18T08:07:21.817Z,11.70
2017-09-18T08:09:50.832Z,10.73
2017-09-18T08:12:18.966Z,12.80
2017-09-18T08:14:47.096Z,12.93
2017-09-18T08:17:15.660Z,12.10
2017-09-18T08:19:44.737Z,12.43
2017-09-18T08:22:12.890Z,12.50
2017-09-18T08:24:41.847Z,13.80
2017-09-18T08:27:10.050Z,13.23
2017-09-18T08:29:38.529Z,13.80
2017-09-18T08:32:06.671Z,13.50
2017-09-18T08:34:34.857Z,13.80
2017-09-18T08:37:03.251Z,13.57
2017-09-18T08:39:32.465Z,13.83
2017-09-18T08:42:00.821Z,13.47
2017-09-18T08:44:28.943Z,13.20
2017-09-18T08:46:57.052Z,13.53
2017-09-18T08:49:25.175Z,13.97
2017-09-18T08:51:53.316Z,13.60
2017-09-18T08:54:21.729Z,13.00
2017-09-18T08:56:49.839Z,14.00
2017-09-18T08:59:17.972Z,13.70
2017-09-18T09:01:46.127Z,13.43
2017-09-18T09:04:15.111Z,13.87
2017-09-18T09:06:43.231Z,15.10
2017-09-18T09:09:11.348Z,13.20
2017-09-18T09:11:39.435Z,13.93
2017-09-18T09:14:07.747Z,14.20
2017-09-18T09:16:35.843Z,15.07
2017-09-18T09:19:03.960Z,14.83
2017-09-18T09:21:32.315Z,13.40
2017-09-18T09:24:00.469Z,12.70
2017-09-18T09:26:28.663Z,12.87
2017-09-18T09:28:56.781Z,13.33
2017-09-18T09:31:24.911Z,15.40
2017-09-18T09:33:53.043Z,12.67
2017-09-18T09:36:21.968Z,13.53
2017-09-18T09:38:50.076Z,13.67
2017-09-18T09:41:18.959Z,13.83
2017-09-18T09:43:49.611Z,12.90
2017-09-18T09:46:17.905Z,13.17
2017-09-18T09:48:46.044Z,14.13
2017-09-18T09:51:14.937Z,14.40
2017-09-18T09:53:44.278Z,11.80
2017-09-18T09:56:12.392Z,13.57
2017-09-18T09:58:40.506Z,14.67
2017-09-18T10:01:08.697Z,14.80
2017-09-18T10:03:37.060Z,17.30
2017-09-18T10:06:05.198Z,15.40
2017-09-18T10:08:33.692Z,15.40
2017-09-18T10:11:01.925Z,13.23
2017-09-18T10:13:30.141Z,12.50
2017-09-18T10:15:59.010Z,13.33
2017-09-18T10:18:30.421Z,13.70
2017-09-18T10:20:59.607Z,15.30
2017-09-18T10:23:28.881Z,15.57
2017-09-18T10:25:58.181Z,13.80
2017-09-18T10:28:26.452Z,14.60
2017-09-18T10:30:57.912Z,16.73
2017-09-18T10:33:26.083Z,16.80
2017-09-18T10:35:59.952Z,16.83
2017-09-18T10:38:29.130Z,17.33
2017-09-18T10:40:57.268Z,17.73
2017-09-18T10:43:25.427Z,20.80
2017-09-18T10:45:54.702Z,19.83
2017-09-18T10:48:22.911Z,20.07
2017-09-18T10:50:51.275Z,20.67
2017-09-18T10:53:19.435Z,21.17
2017-09-18T10:55:48.590Z,20.50
2017-09-18T10:58:16.695Z,20.30
2017-09-18T11:00:50.789Z,20.83
2017-09-18T11:03:18.948Z,23.07
2017-09-18T11:05:47.313Z,22.27
2017-09-18T11:08:17.440Z,24.23
2017-09-18T11:10:45.640Z,23.77
2017-09-18T11:13:13.999Z,22.93
2017-09-18T11:15:42.100Z,24.93
2017-09-18T11:18:10.315Z,25.60
2017-09-18T11:20:39.249Z,26.83
2017-09-18T11:23:07.370Z,25.43
2017-09-18T11:25:35.716Z,24.40
2017-09-18T11:28:03.827Z,24.70
2017-09-18T11:30:32.207Z,23.33
2017-09-18T11:33:00.335Z,22.90
2017-09-18T11:35:28.479Z,21.83
2017-09-18T11:37:56.864Z,24.50
2017-09-18T11:40:25.720Z,21.37
2017-09-18T11:42:53.879Z,25.00
2017-09-18T11:45:22.020Z,23.87
2017-09-18T11:47:50.139Z,22.63
2017-09-18T11:50:18.296Z,23.27
2017-09-18T11:52:46.887Z,21.90
2017-09-18T11:55:15.377Z,20.90
2017-09-18T11:57:43.495Z,21.60
2017-09-18T12:00:12.680Z,14.60
2017-09-18T12:02:41.358Z,18.00
2017-09-18T12:05:09.560Z,18.80
2017-09-18T12:07:37.988Z,14.00
2017-09-18T12:10:06.850Z,12.73
2017-09-18T12:12:35.012Z,11.23
2017-09-18T12:15:03.151Z,10.17
2017-09-18T12:17:31.283Z,8.53
2017-09-18T12:19:59.463Z,9.70
2017-09-18T12:22:28.341Z,9.67
2017-09-18T12:24:57.446Z,8.57
2017-09-18T12:27:25.588Z,8.30
2017-09-18T12:29:53.672Z,9.27
2017-09-18T12:32:21.753Z,7.67
2017-09-18T12:34:49.930Z,8.40
2017-09-18T12:37:18.061Z,7.37
2017-09-18T12:39:46.819Z,8.07
2017-09-18T12:42:15.752Z,6.27
2017-09-18T12:44:44.222Z,5.67
2017-09-18T12:47:12.372Z,5.23
2017-09-18T12:49:41.253Z,5.50
2017-09-18T12:52:10.120Z,5.00
2017-09-18T12:54:38.231Z,6.00
2017-09-18T12:57:06.324Z,6.30
2017-09-18T12:59:34.463Z,5.67
2017-09-18T13:02:03.345Z,6.20
2017-09-18T13:04:31.456Z,6.43
2017-09-18T13:06:59.543Z,5.47
2017-09-18T13:09:27.636Z,6.27
2017-09-18T13:11:55.764Z,6.93
2017-09-18T13:14:23.855Z,5.40
2017-09-18T13:16:52.199Z,6.73
2017-09-18T13:19:21.528Z,5.70
2017-09-18T13:21:49.625Z,6.17
2017-09-18T13:24:18.089Z,6.83
2017-09-18T13:26:46.387Z,6.50
2017-09-18T13:29:14.620Z,6.40
2017-09-18T13:31:42.736Z,7.00
2017-09-18T13:34:10.814Z,5.40
2017-09-18T13:36:39.162Z,5.97
2017-09-18T13:39:07.276Z,4.60
2017-09-18T13:41:35.819Z,4.90
2017-09-18T13:44:04.548Z,4.60
2017-09-18T13:46:32.868Z,3.90
2017-09-18T13:49:00.988Z,3.90
2017-09-18T13:51:29.111Z,4.00
2017-09-18T13:53:57.235Z,4.20
2017-09-18T13:56:25.768Z,3.70
2017-09-18T13:58:53.867Z,3.37
2017-09-18T14:01:22.060Z,3.03
2017-09-18T14:03:50.172Z,4.10
2017-09-18T14:06:18.296Z,3.77
2017-09-18T14:08:46.487Z,3.13
2017-09-18T14:11:15.623Z,3.50
2017-09-18T14:13:44.063Z,2.50
2017-09-18T14:16:13.105Z,1.80
2017-09-18T14:18:41.284Z,1.77
2017-09-18T14:21:09.393Z,1.20
2017-09-18T14:23:37.677Z,1.20
2017-09-18T14:26:05.892Z,1.40
2017-09-18T14:28:34.076Z,1.57
2017-09-18T14:31:02.357Z,1.60
2017-09-18T14:33:30.464Z,1.50
2017-09-18T14:35:58.601Z,1.30
2017-09-18T14:38:26.918Z,1.40
2017-09-18T14:40:55.052Z,1.60
2017-09-18T14:43:23.168Z,1.60
2017-09-18T14:45:53.210Z,1.63
2017-09-18T14:48:21.336Z,1.90
2017-09-18T14:50:49.437Z,1.80
2017-09-18T14:53:17.544Z,1.97
2017-09-18T14:55:46.680Z,2.37
2017-09-18T14:58:17.880Z,2.30
2017-09-18T15:00:46.090Z,2.67
2017-09-18T15:03:14.340Z,2.77
2017-09-18T15:05:42.460Z,3.67
2017-09-18T15:08:10.563Z,3.33
2017-09-18T15:10:39.486Z,3.33
2017-09-18T15:13:08.099Z,3.83
2017-09-18T15:15:38.385Z,2.27
2017-09-18T15:18:07.242Z,1.70
2017-09-18T15:20:35.358Z,1.60
2017-09-18T15:23:03.454Z,1.43
2017-09-18T15:25:32.487Z,1.50
2017-09-18T15:28:00.617Z,1.30
2017-09-18T15:30:28.712Z,1.43
2017-09-18T15:32:56.933Z,1.60
2017-09-18T15:35:25.903Z,1.80
2017-09-18T15:37:55.520Z,1.80
2017-09-18T15:40:24.824Z,1.70
2017-09-18T15:42:53.227Z,2.43
2017-09-18T15:45:21.833Z,2.13
2017-09-18T15:47:49.969Z,1.90
2017-09-18T15:50:18.850Z,2.13
2017-09-18T15:52:47.736Z,2.00
2017-09-18T15:55:16.612Z,2.17
2017-09-18T15:57:45.755Z,2.20
2017-09-18T16:00:14.376Z,2.60
2017-09-18T16:02:43.028Z,2.27
2017-09-18T16:05:11.203Z,3.17
2017-09-18T16:07:40.063Z,2.77
2017-09-18T16:10:09.025Z,2.90
2017-09-18T16:12:37.256Z,2.97
2017-09-18T16:15:05.418Z,3.40
2017-09-18T16:17:33.515Z,3.07
2017-09-18T16:20:01.660Z,3.63
2017-09-18T16:22:30.631Z,3.47
2017-09-18T16:24:58.746Z,3.63
2017-09-18T16:27:26.884Z,4.07
2017-09-18T16:29:55.451Z,5.10
2017-09-18T16:32:23.728Z,3.77
2017-09-18T16:34:52.029Z,4.80
2017-09-18T16:37:20.271Z,4.90
2017-09-18T16:39:48.392Z,7.00
2017-09-18T16:42:18.624Z,5.10
2017-09-18T16:44:46.834Z,4.93
2017-09-18T16:47:14.975Z,5.40
2017-09-18T16:49:43.765Z,4.10
2017-09-18T16:52:11.896Z,3.30
2017-09-18T16:54:39.984Z,2.97
2017-09-18T16:57:09.833Z,2.80
2017-09-18T16:59:37.937Z,3.50
2017-09-18T17:02:06.076Z,3.70
2017-09-18T17:04:34.217Z,4.10
2017-09-18T17:07:04.143Z,3.73
2017-09-18T17:09:32.285Z,4.10
2017-09-18T17:12:03.960Z,3.70
2017-09-18T17:14:32.848Z,4.13
2017-09-18T17:17:01.752Z,4.13
2017-09-18T17:19:29.917Z,3.50
2017-09-18T17:21:58.021Z,3.77
2017-09-18T17:24:26.131Z,4.70
2017-09-18T17:26:54.261Z,4.73
2017-09-18T17:29:22.348Z,5.20
2017-09-18T17:31:50.470Z,4.20
2017-09-18T17:34:19.398Z,4.40
2017-09-18T17:36:48.263Z,5.43
2017-09-18T17:39:16.373Z,4.60
2017-09-18T17:41:44.544Z,4.70
2017-09-18T17:44:12.979Z,4.50
2017-09-18T17:46:41.067Z,4.40
2017-09-18T17:49:09.228Z,5.20
2017-09-18T17:51:37.350Z,4.63
2017-09-18T17:54:05.463Z,5.30
2017-09-18T17:56:33.638Z,5.87
2017-09-18T17:59:01.784Z,5.67
2017-09-18T18:01:29.994Z,5.40
2017-09-18T18:03:58.908Z,5.43
2017-09-18T18:06:27.029Z,5.50
2017-09-18T18:08:55.668Z,5.80
2017-09-18T18:11:23.800Z,5.20
2017-09-18T18:13:52.099Z,5.83
2017-09-18T18:16:21.917Z,5.77
2017-09-18T18:18:51.951Z,5.80
2017-09-18T18:21:20.088Z,6.47
2017-09-18T18:23:51.761Z,6.70
2017-09-18T18:26:19.946Z,6.17
2017-09-18T18:28:48.592Z,6.40
2017-09-18T18:31:18.740Z,7.23
2017-09-18T18:33:46.836Z,8.40
2017-09-18T18:36:16.143Z,8.63
2017-09-18T18:38:44.287Z,7.83
2017-09-18T18:41:12.521Z,7.90
2017-09-18T18:43:40.637Z,7.80
2017-09-18T18:46:08.772Z,7.87
2017-09-18T18:48:37.237Z,7.70
2017-09-18T18:51:06.593Z,8.40
2017-09-18T18:53:35.763Z,8.90
2017-09-18T18:56:04.080Z,8.90
2017-09-18T18:58:32.534Z,9.07
2017-09-18T19:01:02.502Z,9.50
2017-09-18T19:03:32.112Z,10.60
2017-09-18T19:06:03.592Z,9.70
2017-09-18T19:08:31.723Z,9.70
2017-09-18T19:11:00.625Z,10.50
2017-09-18T19:13:28.951Z,10.87
2017-09-18T19:15:57.437Z,9.47
2017-09-18T19:18:25.828Z,9.70
2017-09-18T19:20:54.846Z,10.90
2017-09-18T19:23:23.709Z,10.93
2017-09-18T19:25:52.695Z,9.77
2017-09-18T19:28:20.881Z,11.50
2017-09-18T19:30:49.815Z,11.57
2017-09-18T19:33:18.065Z,12.57
2017-09-18T19:35:46.183Z,11.87
2017-09-18T19:38:15.141Z,11.43
2017-09-18T19:40:45.675Z,11.40
2017-09-18T19:43:13.815Z,10.33
2017-09-18T19:45:41.921Z,11.67
2017-09-18T19:48:11.637Z,11.83
2017-09-18T19:50:40.686Z,13.17
2017-09-18T19:53:10.846Z,12.10
2017-09-18T19:55:40.932Z,13.40
2017-09-18T19:58:09.053Z,13.70
2017-09-18T20:00:40.989Z,12.50
2017-09-18T20:03:09.356Z,11.67
2017-09-18T20:05:37.552Z,11.93
2017-09-18T20:08:05.654Z,11.23
2017-09-18T20:10:33.783Z,12.40
2017-09-18T20:13:03.021Z,11.57
2017-09-18T20:15:32.063Z,12.07
2017-09-18T20:18:00.467Z,11.17
2017-09-18T20:20:28.676Z,11.50
2017-09-18T20:22:56.868Z,12.13
2017-09-18T20:25:27.650Z,12.50
2017-09-18T20:27:56.756Z,13.07
2017-09-18T20:30:26.837Z,12.63
2017-09-18T20:32:55.935Z,13.20
2017-09-18T20:35:24.141Z,13.47
2017-09-18T20:37:53.380Z,14.30
2017-09-18T20:40:22.303Z,13.43
2017-09-18T20:42:51.442Z,14.80
2017-09-18T20:45:21.140Z,13.43
2017-09-18T20:47:49.261Z,13.47
2017-09-18T20:50:17.421Z,13.60
2017-09-18T20:52:47.545Z,13.80
2017-09-18T20:55:17.755Z,14.13
2017-09-18T20:57:49.305Z,14.73
2017-09-18T21:00:18.482Z,15.33
2017-09-18T21:02:46.615Z,14.40
2017-09-18T21:05:15.549Z,14.20
2017-09-18T21:07:44.743Z,15.43
2017-09-18T21:10:14.999Z,16.43
2017-09-18T21:12:46.390Z,14.40
2017-09-18T21:15:14.593Z,15.30
2017-09-18T21:17:45.682Z,15.07
2017-09-18T21:20:16.224Z,14.47
2017-09-18T21:22:50.079Z,13.93
2017-09-18T21:25:19.199Z,14.33
2017-09-18T21:27:47.399Z,14.47
2017-09-18T21:30:16.452Z,14.70
2017-09-18T21:32:44.574Z,14.50
2017-09-18T21:35:12.775Z,13.57
2017-09-18T21:37:40.948Z,14.50
2017-09-18T21:40:09.100Z,13.10
2017-09-18T21:42:37.220Z,15.27
2017-09-18T21:45:05.346Z,14.30
2017-09-18T21:47:33.493Z,15.90
2017-09-18T21:50:01.606Z,14.50
2017-09-18T21:52:29.707Z,14.03
2017-09-18T21:54:58.100Z,15.33
2017-09-18T21:57:26.193Z,15.97
2017-09-18T21:59:54.436Z,15.33
2017-09-18T22:02:22.644Z,15.67
2017-09-18T22:04:50.792Z,16.17
2017-09-18T22:07:18.909Z,16.50
2017-09-18T22:09:47.822Z,17.70
2017-09-18T22:12:16.315Z,16.20
2017-09-18T22:14:44.452Z,17.23
2017-09-18T22:17:13.312Z,19.80
2017-09-18T22:19:41.425Z,18.20
2017-09-18T22:22:09.580Z,19.20
2017-09-18T22:24:37.675Z,18.40
2017-09-18T22:27:05.790Z,18.10
2017-09-18T22:29:33.893Z,19.63
2017-09-18T22:32:02.345Z,19.10
2017-09-18T22:34:30.459Z,19.80
2017-09-18T22:36:59.564Z,21.17
2017-09-18T22:39:27.668Z,19.20
2017-09-18T22:41:56.764Z,19.47
2017-09-18T22:44:26.313Z,21.13
2017-09-18T22:46:55.203Z,20.17
2017-09-18T22:49:23.512Z,19.80
2017-09-18T22:51:51.869Z,19.43
2017-09-18T22:54:20.005Z,20.57
2017-09-18T22:56:48.115Z,20.47
2017-09-18T22:59:16.240Z,20.33
2017-09-18T23:01:44.529Z,21.23
2017-09-18T23:04:13.316Z,21.90
2017-09-18T23:06:41.419Z,22.93
2017-09-18T23:09:09.549Z,23.73
2017-09-18T23:11:38.219Z,22.87
2017-09-18T23:14:06.419Z,23.37
2017-09-18T23:16:34.548Z,25.40
2017-09-18T23:19:02.647Z,24.47
2017-09-18T23:21:30.769Z,24.43
2017-09-18T23:23:58.893Z,24.10
2017-09-18T23:26:27.065Z,26.43
2017-09-18T23:28:55.599Z,22.40
2017-09-18T23:31:23.733Z,23.80
2017-09-18T23:33:52.094Z,24.77
2017-09-18T23:36:21.176Z,24.87
2017-09-18T23:38:50.573Z,26.17
2017-09-18T23:41:19.805Z,24.03
2017-09-18T23:43:47.911Z,25.43
2017-09-18T23:46:16.218Z,26.27
2017-09-18T23:48:46.135Z,26.47
2017-09-18T23:51:14.269Z,24.77
2017-09-18T23:53:42.376Z,26.73
2017-09-18T23:56:12.082Z,25.03
2017-09-18T23:58:41.016Z,27.53
